createdAt,value
2023-03-06T00:00:38.303Z,14.00
2023-03-06T00:03:05.748Z,14.60
2023-03-06T00:05:32.486Z,16.67
2023-03-06T00:07:59.142Z,19.67
2023-03-06T00:10:29.875Z,14.63
2023-03-06T00:12:59.358Z,15.27
2023-03-06T00:15:27.439Z,13.27
2023-03-06T00:17:55.110Z,13.98
2023-03-06T00:20:22.457Z,17.17
2023-03-06T00:22:49.925Z,13.88
2023-03-06T00:25:19.062Z,14.60
2023-03-06T00:27:45.833Z,19.35
2023-03-06T00:30:15.863Z,19.13
2023-03-06T00:32:43.662Z,17.70
2023-03-06T00:35:11.317Z,17.48
2023-03-06T00:37:38.543Z,17.88
2023-03-06T00:40:06.854Z,17.35
2023-03-06T00:42:33.602Z,13.45
2023-03-06T00:45:00.263Z,12.20
2023-03-06T00:47:27.150Z,15.20
2023-03-06T00:49:53.752Z,15.07
2023-03-06T00:52:20.787Z,16.50
2023-03-06T00:54:47.588Z,14.75
2023-03-06T00:57:14.231Z,12.10
2023-03-06T00:59:41.014Z,14.75
2023-03-06T01:02:07.740Z,14.05
2023-03-06T01:04:34.679Z,16.08
2023-03-06T01:07:01.325Z,15.07
2023-03-06T01:09:29.114Z,16.13
2023-03-06T01:11:56.176Z,14.60
2023-03-06T01:14:23.169Z,18.77
2023-03-06T01:16:50.166Z,16.73
2023-03-06T01:19:17.251Z,18.40
2023-03-06T01:21:43.911Z,15.50
2023-03-06T01:24:10.539Z,22.23
2023-03-06T01:26:37.189Z,17.45
2023-03-06T01:29:03.847Z,19.67
2023-03-06T01:31:30.605Z,18.55
2023-03-06T01:33:57.260Z,19.15
2023-03-06T01:36:24.279Z,15.35
2023-03-06T01:38:50.908Z,15.75
2023-03-06T01:41:18.031Z,20.50
2023-03-06T01:43:46.368Z,19.38
2023-03-06T01:46:44.674Z,21.17
2023-03-06T01:49:16.570Z,19.23
2023-03-06T01:51:51.154Z,20.05
2023-03-06T01:54:34.599Z,20.88
2023-03-06T01:57:08.006Z,20.92
2023-03-06T01:59:37.421Z,21.58
2023-03-06T02:02:06.867Z,21.70
2023-03-06T02:04:33.982Z,21.35
2023-03-06T02:07:04.756Z,22.77
2023-03-06T02:09:32.837Z,26.63
2023-03-06T02:12:01.229Z,25.58
2023-03-06T02:14:28.718Z,27.50
2023-03-06T02:16:55.494Z,24.55
2023-03-06T02:19:46.808Z,22.15
2023-03-06T02:22:13.506Z,24.63
2023-03-06T02:25:01.409Z,22.83
2023-03-06T02:27:28.295Z,24.52
2023-03-06T02:29:55.194Z,23.27
2023-03-06T02:32:21.881Z,25.17
2023-03-06T02:34:55.508Z,22.27
2023-03-06T02:37:24.182Z,22.58
2023-03-06T02:39:58.230Z,21.98
2023-03-06T02:42:28.854Z,23.38
2023-03-06T02:44:57.262Z,27.58
2023-03-06T02:47:23.948Z,22.13
2023-03-06T02:49:50.603Z,25.10
2023-03-06T02:52:17.300Z,25.67
2023-03-06T02:54:43.896Z,24.88
2023-03-06T02:57:10.578Z,19.95
2023-03-06T02:59:37.235Z,21.90
2023-03-06T03:02:04.212Z,24.48
2023-03-06T03:04:30.862Z,25.23
2023-03-06T03:06:57.539Z,30.52
2023-03-06T03:09:24.177Z,28.25
2023-03-06T03:11:50.860Z,27.13
2023-03-06T03:14:17.696Z,30.52
2023-03-06T03:16:45.282Z,24.15
2023-03-06T03:19:11.894Z,32.97
2023-03-06T03:21:40.525Z,27.52
2023-03-06T03:24:07.899Z,30.42
2023-03-06T03:26:34.537Z,24.60
2023-03-06T03:29:01.161Z,24.08
2023-03-06T03:31:27.814Z,24.83
2023-03-06T03:33:54.471Z,31.55
2023-03-06T03:36:21.463Z,26.85
2023-03-06T03:38:48.082Z,26.35
2023-03-06T03:41:14.742Z,26.33
2023-03-06T03:43:42.645Z,34.97
2023-03-06T03:46:09.308Z,32.00
2023-03-06T03:48:36.049Z,37.33
2023-03-06T03:51:12.166Z,33.58
2023-03-06T03:53:38.864Z,37.92
2023-03-06T03:56:06.241Z,34.38
2023-03-06T03:58:32.942Z,37.40
2023-03-06T04:00:59.782Z,39.42
2023-03-06T04:03:26.631Z,34.33
2023-03-06T04:05:55.331Z,41.63
2023-03-06T04:08:22.078Z,44.15
2023-03-06T04:10:48.705Z,33.50
2023-03-06T04:13:15.415Z,39.53
2023-03-06T04:15:42.060Z,40.25
2023-03-06T04:18:08.681Z,41.40
2023-03-06T04:20:35.290Z,38.63
2023-03-06T04:23:01.958Z,38.97
2023-03-06T04:25:28.621Z,38.25
2023-03-06T04:27:55.316Z,32.15
2023-03-06T04:30:22.014Z,36.00
2023-03-06T04:32:48.682Z,35.25
2023-03-06T04:35:15.318Z,32.28
2023-03-06T04:37:42.278Z,36.58
2023-03-06T04:40:17.756Z,33.00
2023-03-06T04:42:44.551Z,34.35
2023-03-06T04:45:11.616Z,36.70
2023-03-06T04:47:38.264Z,35.75
2023-03-06T04:50:05.767Z,41.20
2023-03-06T04:52:32.388Z,38.10
2023-03-06T04:54:59.024Z,45.92
2023-03-06T04:57:25.663Z,39.53
2023-03-06T04:59:52.327Z,45.13
2023-03-06T05:02:19.036Z,35.80
2023-03-06T05:04:45.631Z,38.90
2023-03-06T05:07:12.661Z,36.80
2023-03-06T05:09:39.296Z,35.35
2023-03-06T05:12:06.151Z,34.50
2023-03-06T05:14:32.814Z,33.53
2023-03-06T05:16:59.506Z,34.17
2023-03-06T05:19:26.148Z,32.47
2023-03-06T05:21:52.799Z,33.65
2023-03-06T05:24:19.409Z,33.47
2023-03-06T05:26:46.055Z,31.55
2023-03-06T05:29:12.679Z,33.00
2023-03-06T05:31:39.503Z,32.60
2023-03-06T05:34:06.157Z,38.13
2023-03-06T05:36:33.037Z,32.65
2023-03-06T05:38:59.668Z,34.67
2023-03-06T05:41:26.327Z,36.53
2023-03-06T05:43:53.524Z,33.67
2023-03-06T05:46:20.458Z,34.45
2023-03-06T05:48:47.959Z,32.45
2023-03-06T05:51:14.596Z,29.88
2023-03-06T05:53:41.325Z,32.53
2023-03-06T05:56:11.711Z,31.58
2023-03-06T05:58:39.007Z,32.20
2023-03-06T06:01:16.648Z,36.22
2023-03-06T06:03:43.394Z,32.08
2023-03-06T06:06:12.330Z,29.92
2023-03-06T06:08:39.296Z,30.67
2023-03-06T06:11:07.137Z,27.75
2023-03-06T06:13:33.885Z,28.50
2023-03-06T06:16:00.561Z,27.08
2023-03-06T06:18:27.329Z,25.40
2023-03-06T06:20:55.938Z,24.88
2023-03-06T06:23:22.788Z,23.92
2023-03-06T06:25:49.447Z,24.90
2023-03-06T06:28:16.106Z,28.35
2023-03-06T06:30:42.721Z,24.48
2023-03-06T06:33:09.333Z,33.35
2023-03-06T06:35:37.215Z,27.60
2023-03-06T06:38:03.962Z,26.33
2023-03-06T06:40:30.628Z,24.00
2023-03-06T06:42:57.277Z,21.27
2023-03-06T06:45:23.906Z,29.65
2023-03-06T06:47:50.587Z,20.75
2023-03-06T06:50:17.299Z,24.70
2023-03-06T06:52:44.002Z,21.77
2023-03-06T06:55:11.867Z,20.90
2023-03-06T06:57:39.670Z,22.60
2023-03-06T07:00:07.113Z,20.75
2023-03-06T07:02:33.911Z,19.35
2023-03-06T07:05:04.791Z,23.95
2023-03-06T07:07:35.037Z,18.77
2023-03-06T07:10:01.882Z,18.40
2023-03-06T07:12:32.282Z,20.83
2023-03-06T07:14:58.924Z,19.42
2023-03-06T07:17:25.589Z,27.98
2023-03-06T07:19:52.202Z,26.48
2023-03-06T07:22:18.848Z,22.83
2023-03-06T07:24:45.477Z,20.38
2023-03-06T07:27:12.122Z,23.67
2023-03-06T07:29:38.717Z,22.50
2023-03-06T07:32:05.524Z,19.65
2023-03-06T07:34:32.190Z,19.08
2023-03-06T07:36:58.903Z,22.63
2023-03-06T07:39:25.617Z,19.25
2023-03-06T07:41:52.388Z,25.65
2023-03-06T07:44:19.100Z,23.75
2023-03-06T07:46:45.831Z,21.77
2023-03-06T07:49:12.428Z,21.60
2023-03-06T07:51:39.083Z,20.88
2023-03-06T07:54:05.764Z,24.00
2023-03-06T07:56:34.872Z,23.35
2023-03-06T07:59:02.102Z,23.67
2023-03-06T08:01:29.060Z,20.08
2023-03-06T08:03:55.782Z,21.55
2023-03-06T08:06:27.894Z,24.95
2023-03-06T08:08:56.890Z,19.83
2023-03-06T08:11:27.604Z,22.00
2023-03-06T08:13:55.474Z,19.73
2023-03-06T08:16:25.078Z,21.85
2023-03-06T08:18:51.807Z,20.35
2023-03-06T08:21:20.700Z,21.25
2023-03-06T08:23:48.266Z,17.95
2023-03-06T08:26:24.347Z,22.88
2023-03-06T08:28:52.571Z,20.90
2023-03-06T08:31:42.709Z,21.05
2023-03-06T08:34:12.507Z,19.35
2023-03-06T08:36:39.351Z,20.63
2023-03-06T08:39:06.632Z,20.75
2023-03-06T08:41:34.313Z,20.88
2023-03-06T08:44:01.042Z,21.95
2023-03-06T08:46:29.551Z,25.45
2023-03-06T08:48:56.348Z,19.77
2023-03-06T08:51:23.476Z,19.60
2023-03-06T08:53:51.189Z,19.08
2023-03-06T08:56:21.380Z,17.80
2023-03-06T08:58:48.703Z,23.00
2023-03-06T09:01:20.319Z,18.65
2023-03-06T09:03:47.280Z,19.63
2023-03-06T09:06:14.566Z,18.30
2023-03-06T09:08:43.139Z,21.88
2023-03-06T09:11:12.108Z,17.88
2023-03-06T09:13:39.073Z,19.63
2023-03-06T09:16:06.410Z,17.77
2023-03-06T09:18:33.299Z,19.85
2023-03-06T09:21:00.095Z,19.73
2023-03-06T09:23:26.777Z,20.17
2023-03-06T09:25:58.438Z,17.73
2023-03-06T09:28:25.317Z,20.98
2023-03-06T09:30:52.222Z,16.45
2023-03-06T09:33:19.421Z,18.02
2023-03-06T09:35:56.692Z,19.58
2023-03-06T09:38:27.226Z,20.05
2023-03-06T09:41:11.257Z,17.65
2023-03-06T09:43:48.996Z,18.73
2023-03-06T09:46:32.245Z,18.95
2023-03-06T09:49:13.484Z,18.92
2023-03-06T09:52:06.643Z,20.45
2023-03-06T09:55:02.092Z,22.15
2023-03-06T09:57:33.078Z,19.05
2023-03-06T10:00:05.703Z,21.73
2023-03-06T10:02:54.012Z,18.58
2023-03-06T10:05:25.403Z,16.40
2023-03-06T10:08:06.369Z,19.55
2023-03-06T10:10:52.166Z,21.05
2023-03-06T10:13:46.996Z,20.83
2023-03-06T10:16:28.085Z,20.95
2023-03-06T10:19:03.515Z,17.45
2023-03-06T10:21:42.894Z,23.55
2023-03-06T10:24:27.259Z,19.37
2023-03-06T10:27:04.553Z,18.90
2023-03-06T10:30:02.697Z,19.08
2023-03-06T10:32:57.435Z,18.30
2023-03-06T10:35:51.722Z,16.95
2023-03-06T10:38:24.010Z,17.38
2023-03-06T10:41:07.620Z,17.95
2023-03-06T10:43:36.638Z,18.20
2023-03-06T10:46:05.068Z,18.10
2023-03-06T10:48:35.952Z,20.35
2023-03-06T10:51:24.083Z,19.27
2023-03-06T10:54:03.400Z,19.85
2023-03-06T10:56:33.797Z,20.10
2023-03-06T10:59:06.404Z,22.60
2023-03-06T11:01:34.119Z,18.40
2023-03-06T11:04:23.639Z,19.83
2023-03-06T11:07:06.988Z,17.00
2023-03-06T11:09:33.896Z,18.73
2023-03-06T11:12:21.237Z,19.05
2023-03-06T11:14:48.067Z,16.13
2023-03-06T11:17:29.283Z,18.90
2023-03-06T11:20:14.602Z,19.55
2023-03-06T11:22:42.718Z,15.25
2023-03-06T11:25:13.120Z,15.20
2023-03-06T11:27:43.144Z,13.82
2023-03-06T11:30:23.594Z,13.45
2023-03-06T11:32:58.649Z,12.88
2023-03-06T11:35:35.001Z,12.57
2023-03-06T11:38:16.718Z,13.02
2023-03-06T11:40:51.405Z,13.20
2023-03-06T11:43:43.523Z,13.32
2023-03-06T11:46:30.920Z,14.57
2023-03-06T11:49:16.787Z,16.65
2023-03-06T11:51:51.229Z,16.45
2023-03-06T11:54:17.951Z,15.82
2023-03-06T11:56:56.117Z,13.10
2023-03-06T11:59:50.800Z,12.43
2023-03-06T12:02:42.997Z,12.73
2023-03-06T12:05:39.065Z,10.70
2023-03-06T12:08:49.415Z,10.07
2023-03-06T12:11:46.225Z,11.73
2023-03-06T12:14:37.910Z,9.20
2023-03-06T12:17:07.648Z,9.35
2023-03-06T12:19:59.803Z,8.20
2023-03-06T12:22:57.732Z,10.68
2023-03-06T12:25:33.830Z,9.45
2023-03-06T12:28:33.696Z,9.50
2023-03-06T12:31:32.563Z,8.65
2023-03-06T12:33:59.172Z,9.63
2023-03-06T12:36:46.968Z,7.65
2023-03-06T12:39:25.709Z,6.45
2023-03-06T12:42:23.612Z,10.32
2023-03-06T12:44:56.137Z,8.60
2023-03-06T12:47:27.776Z,8.27
2023-03-06T12:50:08.237Z,7.47
2023-03-06T12:52:35.732Z,8.00
2023-03-06T12:55:06.722Z,9.20
2023-03-06T12:57:33.553Z,9.70
2023-03-06T13:00:00.233Z,11.73
2023-03-06T13:03:04.249Z,10.23
2023-03-06T13:05:52.122Z,11.23
2023-03-06T13:08:44.340Z,13.20
2023-03-06T13:11:32.579Z,9.77
2023-03-06T13:13:59.302Z,7.88
2023-03-06T13:16:33.503Z,10.48
2023-03-06T13:19:03.859Z,8.43
2023-03-06T13:24:32.993Z,12.05
2023-03-06T13:27:08.639Z,11.17
2023-03-06T13:29:38.248Z,11.07
2023-03-06T13:32:06.725Z,12.10
2023-03-06T13:34:39.467Z,9.25
2023-03-06T13:37:18.520Z,10.15
2023-03-06T13:39:58.322Z,10.23
2023-03-06T13:42:38.353Z,9.63
2023-03-06T13:45:15.496Z,10.57
2023-03-06T13:48:19.442Z,10.50
2023-03-06T13:50:46.196Z,10.07
2023-03-06T13:53:24.834Z,9.10
2023-03-06T13:55:57.211Z,9.25
2023-03-06T13:58:44.836Z,10.18
2023-03-06T14:01:41.999Z,9.93
2023-03-06T14:04:32.609Z,13.30
2023-03-06T14:06:59.211Z,11.68
2023-03-06T14:09:30.037Z,9.73
2023-03-06T14:12:08.187Z,10.13
2023-03-06T14:14:41.611Z,8.32
2023-03-06T14:17:20.118Z,9.50
2023-03-06T14:19:47.096Z,11.63
2023-03-06T14:22:18.624Z,11.63
2023-03-06T14:24:55.317Z,11.82
2023-03-06T14:27:38.341Z,14.20
2023-03-06T14:30:06.964Z,11.20
2023-03-06T14:32:33.832Z,10.98
2023-03-06T14:35:00.616Z,13.20
2023-03-06T14:37:28.984Z,11.20
2023-03-06T14:39:56.311Z,11.93
2023-03-06T14:42:24.730Z,10.75
2023-03-06T14:45:13.560Z,12.30
2023-03-06T14:47:40.280Z,9.30
2023-03-06T14:50:48.472Z,10.73
2023-03-06T14:53:23.075Z,8.88
2023-03-06T14:55:56.600Z,11.50
2023-03-06T14:58:31.213Z,10.32
2023-03-06T15:01:03.384Z,10.65
2023-03-06T15:03:49.062Z,10.43
2023-03-06T15:06:24.028Z,12.20
2023-03-06T15:09:05.899Z,11.82
2023-03-06T15:12:00.568Z,8.60
2023-03-06T15:14:39.666Z,9.45
2023-03-06T15:17:18.221Z,10.48
2023-03-06T15:19:47.150Z,10.27
2023-03-06T15:22:28.284Z,12.23
2023-03-06T15:25:06.959Z,16.85
2023-03-06T15:27:33.602Z,15.85
2023-03-06T15:30:23.113Z,13.07
2023-03-06T15:32:49.885Z,14.88
2023-03-06T15:35:36.594Z,15.77
2023-03-06T15:38:23.464Z,10.50
2023-03-06T15:41:01.821Z,14.02
2023-03-06T15:43:33.766Z,9.60
2023-03-06T15:46:01.468Z,10.80
2023-03-06T15:48:28.485Z,11.38
2023-03-06T15:50:55.209Z,12.05
2023-03-06T15:53:22.034Z,13.55
2023-03-06T15:55:50.129Z,11.73
2023-03-06T15:58:20.399Z,10.65
2023-03-06T16:03:13.688Z,10.65
2023-03-06T16:05:40.371Z,10.77
2023-03-06T16:08:07.139Z,8.48
2023-03-06T16:10:37.362Z,10.77
2023-03-06T16:15:40.700Z,13.48
2023-03-06T16:18:10.213Z,12.05
2023-03-06T16:20:36.827Z,12.68
2023-03-06T16:23:07.847Z,12.55
2023-03-06T16:25:34.584Z,11.65
2023-03-06T16:28:03.231Z,13.50
2023-03-06T16:30:33.087Z,13.23
2023-03-06T16:33:00.244Z,14.15
2023-03-06T16:35:27.601Z,12.73
2023-03-06T16:37:54.238Z,11.38
2023-03-06T16:40:30.340Z,9.55
2023-03-06T16:42:56.974Z,12.10
2023-03-06T16:45:24.589Z,11.27
2023-03-06T16:47:51.241Z,11.85
2023-03-06T16:50:38.601Z,11.73
2023-03-06T16:53:06.022Z,15.00
2023-03-06T16:55:32.916Z,15.35
2023-03-06T16:58:00.150Z,11.90
2023-03-06T17:00:31.104Z,13.63
2023-03-06T17:02:57.928Z,11.07
2023-03-06T17:05:24.668Z,12.55
2023-03-06T17:07:51.437Z,13.50
2023-03-06T17:10:19.360Z,14.02
2023-03-06T17:12:46.050Z,15.25
2023-03-06T17:15:12.775Z,11.98
2023-03-06T17:17:39.395Z,12.48
2023-03-06T17:20:08.182Z,11.25
2023-03-06T17:22:35.948Z,13.55
2023-03-06T17:25:05.011Z,10.10
2023-03-06T17:27:31.632Z,13.02
2023-03-06T17:29:58.482Z,13.07
2023-03-06T17:32:26.128Z,9.95
2023-03-06T17:34:53.065Z,13.35
2023-03-06T17:37:20.650Z,13.48
2023-03-06T17:39:47.886Z,11.15
2023-03-06T17:42:14.500Z,14.23
2023-03-06T17:44:41.372Z,14.70
2023-03-06T17:47:08.078Z,13.45
2023-03-06T17:49:34.816Z,12.00
2023-03-06T17:52:03.518Z,11.55
2023-03-06T17:54:30.371Z,12.15
2023-03-06T17:57:00.994Z,16.92
2023-03-06T17:59:28.297Z,12.13
2023-03-06T18:01:58.939Z,13.88
2023-03-06T18:04:26.862Z,15.18
2023-03-06T18:06:53.545Z,12.98
2023-03-06T18:09:20.377Z,13.93
2023-03-06T18:11:47.045Z,12.63
2023-03-06T18:14:13.972Z,11.32
2023-03-06T18:16:40.838Z,12.65
2023-03-06T18:19:10.899Z,11.00
2023-03-06T18:21:39.329Z,12.13
2023-03-06T18:24:06.422Z,11.45
2023-03-06T18:26:33.306Z,16.17
2023-03-06T18:29:03.674Z,11.98
2023-03-06T18:31:34.644Z,13.57
2023-03-06T18:34:04.434Z,15.05
2023-03-06T18:36:32.810Z,14.88
2023-03-06T18:39:02.119Z,12.55
2023-03-06T18:41:28.784Z,13.97
2023-03-06T18:43:57.247Z,15.48
2023-03-06T18:46:24.844Z,14.52
2023-03-06T18:48:51.766Z,15.05
2023-03-06T18:51:20.045Z,14.90
2023-03-06T18:53:47.045Z,13.00
2023-03-06T18:56:17.575Z,13.77
2023-03-06T18:58:44.668Z,11.07
2023-03-06T19:01:11.988Z,10.80
2023-03-06T19:03:39.860Z,10.80
2023-03-06T19:06:09.228Z,14.23
2023-03-06T19:08:37.627Z,12.40
2023-03-06T19:11:15.230Z,14.55
2023-03-06T19:13:42.638Z,13.10
2023-03-06T19:16:15.823Z,13.50
2023-03-06T19:18:42.437Z,12.27
2023-03-06T19:21:14.410Z,11.27
2023-03-06T19:23:41.406Z,15.07
2023-03-06T19:26:08.968Z,12.63
2023-03-06T19:28:37.414Z,10.48
2023-03-06T19:31:15.913Z,13.00
2023-03-06T19:33:43.186Z,13.82
2023-03-06T19:36:12.124Z,13.45
2023-03-06T19:38:38.965Z,13.20
2023-03-06T19:41:06.231Z,13.80
2023-03-06T19:43:32.861Z,14.52
2023-03-06T19:46:00.614Z,13.65
2023-03-06T19:48:27.324Z,12.10
2023-03-06T19:50:53.939Z,12.82
2023-03-06T19:53:21.648Z,11.75
2023-03-06T19:55:48.326Z,16.38
2023-03-06T19:58:14.947Z,14.32
2023-03-06T20:00:41.910Z,11.45
2023-03-06T20:03:08.814Z,14.95
2023-03-06T20:05:35.446Z,12.40
2023-03-06T20:08:02.102Z,12.70
2023-03-06T20:10:28.735Z,12.68
2023-03-06T20:12:55.343Z,11.88
2023-03-06T20:15:22.835Z,12.32
2023-03-06T20:17:49.552Z,13.50
2023-03-06T20:20:16.412Z,12.07
2023-03-06T20:22:43.116Z,12.25
2023-03-06T20:25:10.056Z,13.88
2023-03-06T20:27:36.983Z,12.70
2023-03-06T20:30:06.438Z,13.38
2023-03-06T20:32:34.533Z,11.80
2023-03-06T20:35:01.332Z,11.55
2023-03-06T20:37:27.976Z,13.13
2023-03-06T20:39:54.631Z,14.13
2023-03-06T20:42:21.271Z,13.60
2023-03-06T20:44:47.931Z,14.13
2023-03-06T20:47:14.598Z,12.00
2023-03-06T20:49:41.244Z,15.80
2023-03-06T20:52:07.906Z,17.23
2023-03-06T20:54:34.626Z,13.13
2023-03-06T20:57:01.263Z,13.93
2023-03-06T20:59:27.916Z,13.05
2023-03-06T21:01:54.575Z,11.73
2023-03-06T21:04:21.203Z,13.63
2023-03-06T21:06:47.952Z,12.30
2023-03-06T21:09:16.545Z,16.42
2023-03-06T21:11:43.433Z,12.13
2023-03-06T21:14:12.257Z,14.30
2023-03-06T21:16:38.957Z,13.48
2023-03-06T21:19:05.768Z,14.93
2023-03-06T21:21:34.722Z,14.90
2023-03-06T21:24:01.851Z,12.38
2023-03-06T21:26:30.950Z,18.58
2023-03-06T21:29:00.702Z,14.77
2023-03-06T21:31:28.402Z,14.82
2023-03-06T21:33:55.517Z,12.57
2023-03-06T21:36:22.974Z,13.85
2023-03-06T21:38:51.066Z,12.48
2023-03-06T21:41:24.811Z,14.20
2023-03-06T21:43:59.503Z,13.93
2023-03-06T21:46:27.444Z,14.63
2023-03-06T21:48:55.624Z,14.63
2023-03-06T21:51:23.701Z,13.05
2023-03-06T21:53:51.124Z,15.35
2023-03-06T21:56:19.714Z,15.80
2023-03-06T21:58:46.732Z,19.88
2023-03-06T22:01:17.752Z,13.20
2023-03-06T22:03:44.417Z,17.55
2023-03-06T22:06:16.282Z,16.85
2023-03-06T22:08:43.865Z,11.98
2023-03-06T22:11:16.072Z,16.83
2023-03-06T22:13:43.595Z,14.60
2023-03-06T22:16:10.426Z,16.52
2023-03-06T22:18:37.731Z,14.23
2023-03-06T22:21:12.972Z,16.20
2023-03-06T22:23:40.443Z,12.95
2023-03-06T22:26:12.881Z,16.25
2023-03-06T22:28:40.802Z,13.02
2023-03-06T22:31:16.366Z,14.73
2023-03-06T22:33:43.194Z,13.40
2023-03-06T22:36:12.903Z,12.73
2023-03-06T22:38:42.086Z,15.35
2023-03-06T22:41:10.179Z,17.83
2023-03-06T22:43:37.371Z,14.20
2023-03-06T22:46:06.458Z,14.00
2023-03-06T22:48:33.464Z,15.13
2023-03-06T22:51:05.508Z,17.60
2023-03-06T22:53:33.084Z,12.77
2023-03-06T22:56:00.805Z,18.45
2023-03-06T22:58:34.054Z,15.27
2023-03-06T23:01:08.629Z,15.07
2023-03-06T23:03:37.163Z,16.77
2023-03-06T23:06:09.868Z,14.43
2023-03-06T23:08:37.126Z,17.55
2023-03-06T23:11:09.941Z,14.75
2023-03-06T23:13:37.516Z,16.65
2023-03-06T23:16:06.706Z,14.32
2023-03-06T23:18:35.076Z,15.40
2023-03-06T23:21:06.479Z,15.65
2023-03-06T23:23:33.112Z,13.43
2023-03-06T23:26:00.120Z,14.52
2023-03-06T23:28:27.487Z,14.50
2023-03-06T23:30:54.215Z,13.85
2023-03-06T23:33:20.865Z,15.98
2023-03-06T23:35:47.589Z,16.48
2023-03-06T23:38:14.329Z,17.98
2023-03-06T23:40:41.228Z,17.50
2023-03-06T23:43:08.035Z,19.65
2023-03-06T23:45:34.767Z,19.00
2023-03-06T23:48:01.365Z,15.43
2023-03-06T23:50:27.967Z,15.43
2023-03-06T23:52:55.642Z,14.13
2023-03-06T23:55:22.597Z,16.30
2023-03-06T23:57:49.205Z,17.83
